createdAt,value
2018-06-25T00:00:22.506Z,7.12
2018-06-25T00:00:56.704Z,5.97
2018-06-25T00:01:29.912Z,5.05
2018-06-25T00:02:03.495Z,7.20
2018-06-25T00:02:37.085Z,4.50
2018-06-25T00:03:10.724Z,5.70
2018-06-25T00:03:44.510Z,6.70
2018-06-25T00:04:18.067Z,5.78
2018-06-25T00:04:51.691Z,7.22
2018-06-25T00:05:25.201Z,6.50
2018-06-25T00:05:58.831Z,5.20
2018-06-25T00:06:32.439Z,6.30
2018-06-25T00:07:06.905Z,4.75
2018-06-25T00:07:40.436Z,6.25
2018-06-25T00:08:14.056Z,6.20
2018-06-25T00:08:47.614Z,5.15
2018-06-25T00:09:21.283Z,5.73
2018-06-25T00:09:54.799Z,6.45
2018-06-25T00:10:28.437Z,8.35
2018-06-25T00:11:02.318Z,4.72
2018-06-25T00:11:36.654Z,4.80
2018-06-25T00:12:10.255Z,5.40
2018-06-25T00:12:43.857Z,5.33
2018-06-25T00:13:17.933Z,4.77
2018-06-25T00:13:51.461Z,6.55
2018-06-25T00:14:25.080Z,4.83
2018-06-25T00:14:58.660Z,6.58
2018-06-25T00:15:32.299Z,5.45
2018-06-25T00:16:05.983Z,6.50
2018-06-25T00:16:39.612Z,7.40
2018-06-25T00:17:13.761Z,4.73
2018-06-25T00:17:48.173Z,7.10
2018-06-25T00:18:21.792Z,5.65
2018-06-25T00:18:55.407Z,4.87
2018-06-25T00:19:28.996Z,5.33
2018-06-25T00:20:02.627Z,5.70
2018-06-25T00:20:36.752Z,9.73
2018-06-25T00:21:10.316Z,6.87
2018-06-25T00:21:44.923Z,5.85
2018-06-25T00:22:20.022Z,10.03
2018-06-25T00:22:53.708Z,7.25
2018-06-25T00:23:27.265Z,6.85
2018-06-25T00:24:00.925Z,4.08
2018-06-25T00:24:34.541Z,5.53
2018-06-25T00:25:08.156Z,4.60
2018-06-25T00:25:41.836Z,8.00
2018-06-25T00:26:15.441Z,8.38
2018-06-25T00:26:49.732Z,4.55
2018-06-25T00:27:24.324Z,8.65
2018-06-25T00:27:58.056Z,7.20
2018-06-25T00:28:32.600Z,7.55
2018-06-25T00:29:06.243Z,8.75
2018-06-25T00:29:39.804Z,6.10
2018-06-25T00:30:13.432Z,6.03
2018-06-25T00:30:47.626Z,7.90
2018-06-25T00:31:21.399Z,7.00
2018-06-25T00:31:55.473Z,7.42
2018-06-25T00:32:29.660Z,6.28
2018-06-25T00:33:03.269Z,5.22
2018-06-25T00:33:36.797Z,6.80
2018-06-25T00:34:10.315Z,11.15
2018-06-25T00:34:43.900Z,8.05
2018-06-25T00:35:18.063Z,7.03
2018-06-25T00:35:51.678Z,8.30
2018-06-25T00:36:25.480Z,8.05
2018-06-25T00:36:59.004Z,6.47
2018-06-25T00:37:32.535Z,5.53
2018-06-25T00:38:06.368Z,6.80
2018-06-25T00:38:39.879Z,7.25
2018-06-25T00:39:13.452Z,5.20
2018-06-25T00:39:47.247Z,5.10
2018-06-25T00:40:20.850Z,5.50
2018-06-25T00:40:54.415Z,5.83
2018-06-25T00:41:27.975Z,8.70
2018-06-25T00:42:01.545Z,5.97
2018-06-25T00:42:35.144Z,5.40
2018-06-25T00:43:08.733Z,7.40
2018-06-25T00:43:42.328Z,6.15
2018-06-25T00:44:15.943Z,10.03
2018-06-25T00:44:50.134Z,5.90
2018-06-25T00:45:23.647Z,7.05
2018-06-25T00:45:56.884Z,6.00
2018-06-25T00:46:30.439Z,5.30
2018-06-25T00:47:04.594Z,5.65
2018-06-25T00:47:38.920Z,6.08
2018-06-25T00:48:12.446Z,7.42
2018-06-25T00:48:46.084Z,6.85
2018-06-25T00:49:19.880Z,6.60
2018-06-25T00:49:53.080Z,8.00
2018-06-25T00:50:26.803Z,7.17
2018-06-25T00:51:00.392Z,8.95
2018-06-25T00:51:34.094Z,6.08
2018-06-25T00:52:07.696Z,6.90
2018-06-25T00:52:42.564Z,7.87
2018-06-25T00:53:16.104Z,5.40
2018-06-25T00:53:50.136Z,7.22
2018-06-25T00:54:23.641Z,5.85
2018-06-25T00:54:57.908Z,7.72
2018-06-25T00:55:31.513Z,8.30
2018-06-25T00:56:05.146Z,7.53
2018-06-25T00:56:39.354Z,8.65
2018-06-25T00:57:12.967Z,9.43
2018-06-25T00:57:46.527Z,6.75
2018-06-25T00:58:20.735Z,8.53
2018-06-25T00:59:05.489Z,8.20
2018-06-25T00:59:52.937Z,11.33
2018-06-25T01:00:26.536Z,8.93
2018-06-25T01:01:00.176Z,7.25
2018-06-25T01:01:33.724Z,7.42
2018-06-25T01:02:07.418Z,9.25
2018-06-25T01:02:40.953Z,8.05
2018-06-25T01:03:14.559Z,7.87
2018-06-25T01:03:48.184Z,8.15
2018-06-25T01:04:21.796Z,5.92
2018-06-25T01:04:55.380Z,11.28
2018-06-25T01:05:28.928Z,9.40
2018-06-25T01:06:03.225Z,8.58
2018-06-25T01:06:36.767Z,8.13
2018-06-25T01:07:10.585Z,7.45
2018-06-25T01:07:44.133Z,9.13
2018-06-25T01:08:17.722Z,7.15
2018-06-25T01:08:52.175Z,8.30
2018-06-25T01:09:25.403Z,7.75
2018-06-25T01:09:58.942Z,7.53
2018-06-25T01:10:32.462Z,6.55
2018-06-25T01:11:06.207Z,7.30
2018-06-25T01:11:39.999Z,6.90
2018-06-25T01:12:14.229Z,6.28
2018-06-25T01:12:47.835Z,6.72
2018-06-25T01:13:22.036Z,9.50
2018-06-25T01:13:55.612Z,7.45
2018-06-25T01:14:29.236Z,10.15
2018-06-25T01:15:03.541Z,8.88
2018-06-25T01:15:38.044Z,8.88
2018-06-25T01:16:12.874Z,11.78
2018-06-25T01:16:46.447Z,7.65
2018-06-25T01:17:20.063Z,8.13
2018-06-25T01:17:54.203Z,7.92
2018-06-25T01:18:28.182Z,8.63
2018-06-25T01:19:02.341Z,8.80
2018-06-25T01:19:37.968Z,7.25
2018-06-25T01:20:11.728Z,8.08
2018-06-25T01:20:45.307Z,7.12
2018-06-25T01:21:18.876Z,7.30
2018-06-25T01:21:52.494Z,9.40
2018-06-25T01:22:26.077Z,8.80
2018-06-25T01:23:00.108Z,9.53
2018-06-25T01:23:35.172Z,9.28
2018-06-25T01:24:08.733Z,7.70
2018-06-25T01:24:42.968Z,9.20
2018-06-25T01:25:16.160Z,7.40
2018-06-25T01:25:49.415Z,7.95
2018-06-25T01:26:23.636Z,7.08
2018-06-25T01:26:57.453Z,8.88
2018-06-25T01:27:31.036Z,6.53
2018-06-25T01:28:04.627Z,9.50
2018-06-25T01:28:38.830Z,7.95
2018-06-25T01:29:12.387Z,9.30
2018-06-25T01:29:45.580Z,13.40
2018-06-25T01:30:19.163Z,9.25
2018-06-25T01:30:52.767Z,9.63
2018-06-25T01:31:26.355Z,8.53
2018-06-25T01:31:59.903Z,10.45
2018-06-25T01:32:34.149Z,7.92
2018-06-25T01:33:08.639Z,9.30
2018-06-25T01:33:42.201Z,9.98
2018-06-25T01:34:15.814Z,10.95
2018-06-25T01:34:50.025Z,6.90
2018-06-25T01:35:24.496Z,10.05
2018-06-25T01:35:58.155Z,11.60
2018-06-25T01:36:31.811Z,10.00
2018-06-25T01:37:05.477Z,11.10
2018-06-25T01:37:39.752Z,12.37
2018-06-25T01:38:13.327Z,9.80
2018-06-25T01:38:46.980Z,8.15
2018-06-25T01:39:21.060Z,9.25
2018-06-25T01:39:54.656Z,9.78
2018-06-25T01:40:28.197Z,11.65
2018-06-25T01:41:02.659Z,10.00
2018-06-25T01:41:36.357Z,8.35
2018-06-25T01:42:09.959Z,11.22
2018-06-25T01:42:44.046Z,11.53
2018-06-25T01:43:17.651Z,9.43
2018-06-25T01:43:51.896Z,8.15
2018-06-25T01:44:25.492Z,10.32
2018-06-25T01:44:59.147Z,8.43
2018-06-25T01:45:32.751Z,9.10
2018-06-25T01:46:06.339Z,11.40
2018-06-25T01:46:40.962Z,8.78
2018-06-25T01:47:14.564Z,11.10
2018-06-25T01:47:48.104Z,10.28
2018-06-25T01:48:21.671Z,9.88
2018-06-25T01:48:55.711Z,8.78
2018-06-25T01:49:29.254Z,9.58
2018-06-25T01:50:02.809Z,10.82
2018-06-25T01:50:36.376Z,10.53
2018-06-25T01:51:10.590Z,11.70
2018-06-25T01:51:44.802Z,11.22
2018-06-25T01:52:18.411Z,14.87
2018-06-25T01:52:52.590Z,12.00
2018-06-25T01:53:26.131Z,10.82
2018-06-25T01:53:59.662Z,11.15
2018-06-25T01:54:33.927Z,9.20
2018-06-25T01:55:08.176Z,9.28
2018-06-25T01:55:41.768Z,10.25
2018-06-25T01:56:15.377Z,11.75
2018-06-25T01:56:48.954Z,10.98
2018-06-25T01:57:23.188Z,10.32
2018-06-25T01:57:56.754Z,10.65
2018-06-25T01:58:30.367Z,9.05
2018-06-25T01:59:03.965Z,11.80
2018-06-25T01:59:37.539Z,11.15
2018-06-25T02:00:11.151Z,11.60
2018-06-25T02:00:45.323Z,10.00
2018-06-25T02:01:18.864Z,9.18
2018-06-25T02:01:52.129Z,9.68
2018-06-25T02:02:26.361Z,9.73
2018-06-25T02:02:59.889Z,10.00
2018-06-25T02:03:33.500Z,8.53
2018-06-25T02:04:07.069Z,11.38
2018-06-25T02:04:40.628Z,10.85
2018-06-25T02:05:14.751Z,9.23
2018-06-25T02:05:48.644Z,9.33
2018-06-25T02:06:22.212Z,9.18
2018-06-25T02:06:56.415Z,10.80
2018-06-25T02:07:30.564Z,9.30
2018-06-25T02:08:03.831Z,10.82
2018-06-25T02:08:37.536Z,9.65
2018-06-25T02:09:12.416Z,7.27
2018-06-25T02:09:46.001Z,8.43
2018-06-25T02:10:19.592Z,9.23
2018-06-25T02:10:53.295Z,9.00
2018-06-25T02:11:26.915Z,9.65
2018-06-25T02:12:00.849Z,7.00
2018-06-25T02:12:35.006Z,11.10
2018-06-25T02:13:08.768Z,8.77
2018-06-25T02:13:42.330Z,7.78
2018-06-25T02:14:15.913Z,8.55
2018-06-25T02:14:50.131Z,7.03
2018-06-25T02:15:23.775Z,10.18
2018-06-25T02:15:57.511Z,9.00
2018-06-25T02:16:32.007Z,8.45
2018-06-25T02:17:05.767Z,10.90
2018-06-25T02:17:39.333Z,8.08
2018-06-25T02:18:13.385Z,9.05
2018-06-25T02:18:47.767Z,9.13
2018-06-25T02:19:21.340Z,9.73
2018-06-25T02:19:55.292Z,11.03
2018-06-25T02:20:29.611Z,9.30
2018-06-25T02:21:03.808Z,10.65
2018-06-25T02:21:37.417Z,9.23
2018-06-25T02:22:11.606Z,8.45
2018-06-25T02:22:45.203Z,9.45
2018-06-25T02:23:18.857Z,11.87
2018-06-25T02:23:52.422Z,10.03
2018-06-25T02:24:26.181Z,9.60
2018-06-25T02:25:00.351Z,11.75
2018-06-25T02:25:34.495Z,10.30
2018-06-25T02:26:08.029Z,7.30
2018-06-25T02:26:42.230Z,8.10
2018-06-25T02:27:15.814Z,11.73
2018-06-25T02:27:50.113Z,10.43
2018-06-25T02:28:23.675Z,10.90
2018-06-25T02:28:57.212Z,10.93
2018-06-25T02:29:30.855Z,10.78
2018-06-25T02:30:04.708Z,8.53
2018-06-25T02:30:38.271Z,12.05
2018-06-25T02:31:11.823Z,9.07
2018-06-25T02:31:46.051Z,12.98
2018-06-25T02:32:20.346Z,12.73
2018-06-25T02:32:53.984Z,9.83
2018-06-25T02:33:28.256Z,8.98
2018-06-25T02:34:02.768Z,11.88
2018-06-25T02:34:36.380Z,10.95
2018-06-25T02:35:09.992Z,10.40
2018-06-25T02:35:43.187Z,8.90
2018-06-25T02:36:16.843Z,9.98
2018-06-25T02:36:50.421Z,10.72
2018-06-25T02:37:23.984Z,11.95
2018-06-25T02:37:58.299Z,10.70
2018-06-25T02:38:31.960Z,10.28
2018-06-25T02:39:08.656Z,11.60
2018-06-25T02:39:42.919Z,10.75
2018-06-25T02:40:16.483Z,10.25
2018-06-25T02:40:50.098Z,11.60
2018-06-25T02:41:24.557Z,9.28
2018-06-25T02:41:58.165Z,9.60
2018-06-25T02:42:31.699Z,10.35
2018-06-25T02:43:06.065Z,11.33
2018-06-25T02:43:39.616Z,9.20
2018-06-25T02:44:13.178Z,10.98
2018-06-25T02:44:47.235Z,11.43
2018-06-25T02:45:20.483Z,11.87
2018-06-25T02:45:54.012Z,12.10
2018-06-25T02:46:27.579Z,13.75
2018-06-25T02:47:01.220Z,10.20
2018-06-25T02:47:34.823Z,9.35
2018-06-25T02:48:09.047Z,10.40
2018-06-25T02:48:42.589Z,13.13
2018-06-25T02:49:16.230Z,12.90
2018-06-25T02:49:49.778Z,13.60
2018-06-25T02:50:24.142Z,11.30
2018-06-25T02:50:58.377Z,12.53
2018-06-25T02:51:31.940Z,10.50
2018-06-25T02:52:10.948Z,11.80
2018-06-25T02:52:44.484Z,11.08
2018-06-25T02:53:18.839Z,10.53
2018-06-25T02:53:52.675Z,12.10
2018-06-25T02:54:26.338Z,11.38
2018-06-25T02:54:59.963Z,10.05
2018-06-25T02:55:34.913Z,10.63
2018-06-25T02:56:08.447Z,9.88
2018-06-25T02:56:42.010Z,9.23
2018-06-25T02:57:16.221Z,9.80
2018-06-25T02:57:49.809Z,11.20
2018-06-25T02:58:23.397Z,10.13
2018-06-25T02:58:57.367Z,12.30
2018-06-25T02:59:30.965Z,10.30
2018-06-25T03:00:04.622Z,11.37
2018-06-25T03:00:38.189Z,11.60
2018-06-25T03:01:12.955Z,11.77
2018-06-25T03:01:46.476Z,12.82
2018-06-25T03:02:20.080Z,11.20
2018-06-25T03:02:53.679Z,12.58
2018-06-25T03:03:28.871Z,9.43
2018-06-25T03:04:03.337Z,10.25
2018-06-25T03:04:36.925Z,10.23
2018-06-25T03:05:10.479Z,11.00
2018-06-25T03:05:44.216Z,9.85
2018-06-25T03:06:17.923Z,12.20
2018-06-25T03:06:51.818Z,11.12
2018-06-25T03:07:25.397Z,9.70
2018-06-25T03:07:59.596Z,11.15
2018-06-25T03:08:33.208Z,12.88
2018-06-25T03:09:08.633Z,12.53
2018-06-25T03:09:42.738Z,10.03
2018-06-25T03:10:16.335Z,11.18
2018-06-25T03:10:49.890Z,9.40
2018-06-25T03:11:23.427Z,15.60
2018-06-25T03:11:56.988Z,11.55
2018-06-25T03:12:31.505Z,11.10
2018-06-25T03:13:05.064Z,10.57
2018-06-25T03:13:39.866Z,12.53
2018-06-25T03:14:13.084Z,11.25
2018-06-25T03:14:46.660Z,12.78
2018-06-25T03:15:20.250Z,11.83
2018-06-25T03:15:53.814Z,13.62
2018-06-25T03:16:28.203Z,12.70
2018-06-25T03:17:02.371Z,13.35
2018-06-25T03:17:35.950Z,14.25
2018-06-25T03:18:09.512Z,12.03
2018-06-25T03:18:43.297Z,10.95
2018-06-25T03:19:16.948Z,12.87
2018-06-25T03:19:50.936Z,12.10
2018-06-25T03:20:24.473Z,13.60
2018-06-25T03:20:59.518Z,10.40
2018-06-25T03:21:33.089Z,12.50
2018-06-25T03:22:07.154Z,14.30
2018-06-25T03:22:40.941Z,12.88
2018-06-25T03:23:15.172Z,12.50
2018-06-25T03:23:48.797Z,13.95
2018-06-25T03:24:23.071Z,12.25
2018-06-25T03:24:56.685Z,10.28
2018-06-25T03:25:30.341Z,12.15
2018-06-25T03:26:03.936Z,12.90
2018-06-25T03:26:37.528Z,10.53
2018-06-25T03:27:11.163Z,13.17
2018-06-25T03:27:44.685Z,12.88
2018-06-25T03:28:18.244Z,12.55
2018-06-25T03:28:51.825Z,12.10
2018-06-25T03:29:25.432Z,10.95
2018-06-25T03:29:59.192Z,13.13
2018-06-25T03:30:33.437Z,12.65
2018-06-25T03:31:07.005Z,13.00
2018-06-25T03:31:40.610Z,12.70
2018-06-25T03:32:13.852Z,13.85
2018-06-25T03:32:47.417Z,14.78
2018-06-25T03:33:21.771Z,15.48
2018-06-25T03:33:55.408Z,15.40
2018-06-25T03:34:29.008Z,14.60
2018-06-25T03:35:02.584Z,12.20
2018-06-25T03:35:36.257Z,12.98
2018-06-25T03:36:09.816Z,13.13
2018-06-25T03:36:44.136Z,15.03
2018-06-25T03:37:17.737Z,15.68
2018-06-25T03:37:51.353Z,14.85
2018-06-25T03:38:26.104Z,14.70
2018-06-25T03:38:59.704Z,15.72
2018-06-25T03:39:33.813Z,14.95
2018-06-25T03:40:07.382Z,17.60
2018-06-25T03:40:40.979Z,14.78
2018-06-25T03:41:14.206Z,14.70
2018-06-25T03:41:47.743Z,15.60
2018-06-25T03:42:21.324Z,16.17
2018-06-25T03:42:54.891Z,12.95
2018-06-25T03:43:30.605Z,15.25
2018-06-25T03:44:04.300Z,15.32
2018-06-25T03:44:37.877Z,16.70
2018-06-25T03:45:11.476Z,15.10
2018-06-25T03:45:45.795Z,15.40
2018-06-25T03:46:19.370Z,15.55
2018-06-25T03:46:52.970Z,15.15
2018-06-25T03:47:26.526Z,14.60
2018-06-25T03:48:00.145Z,13.43
2018-06-25T03:48:33.780Z,12.55
2018-06-25T03:49:07.484Z,14.28
2018-06-25T03:49:41.211Z,15.18
2018-06-25T03:50:14.727Z,12.50
2018-06-25T03:50:48.331Z,14.60
2018-06-25T03:51:21.592Z,15.13
2018-06-25T03:51:55.174Z,14.70
2018-06-25T03:52:28.785Z,13.75
2018-06-25T03:53:02.860Z,15.04
2018-06-25T03:53:36.444Z,16.60
2018-06-25T03:54:10.718Z,14.83
2018-06-25T03:54:44.335Z,15.03
2018-06-25T03:55:17.885Z,13.17
2018-06-25T03:55:51.431Z,11.03
2018-06-25T03:56:25.688Z,12.50
2018-06-25T03:56:59.276Z,13.13
2018-06-25T03:57:32.828Z,12.68
2018-06-25T03:58:07.065Z,15.43
2018-06-25T03:58:40.656Z,13.70
2018-06-25T03:59:14.240Z,14.70
2018-06-25T03:59:47.868Z,11.90
2018-06-25T04:00:21.452Z,12.03
2018-06-25T04:00:55.018Z,12.13
2018-06-25T04:01:29.588Z,11.18
2018-06-25T04:02:03.091Z,14.93
2018-06-25T04:02:36.723Z,13.43
2018-06-25T04:03:09.904Z,13.73
2018-06-25T04:03:44.133Z,10.98
2018-06-25T04:04:17.732Z,12.25
2018-06-25T04:04:51.302Z,11.35
2018-06-25T04:05:24.823Z,11.80
2018-06-25T04:05:58.389Z,12.18
2018-06-25T04:06:31.892Z,11.88
2018-06-25T04:07:05.483Z,14.40
2018-06-25T04:07:40.378Z,14.68
2018-06-25T04:08:13.912Z,13.30
2018-06-25T04:08:47.521Z,12.65
2018-06-25T04:09:20.822Z,11.43
2018-06-25T04:09:54.409Z,11.20
2018-06-25T04:10:27.954Z,12.88
2018-06-25T04:11:01.517Z,14.10
2018-06-25T04:11:35.047Z,12.73
2018-06-25T04:12:08.695Z,14.38
2018-06-25T04:12:42.292Z,11.68
2018-06-25T04:13:16.414Z,11.43
2018-06-25T04:13:49.963Z,13.00
2018-06-25T04:14:23.493Z,17.00
2018-06-25T04:14:57.075Z,14.38
2018-06-25T04:15:30.672Z,12.37
2018-06-25T04:16:04.269Z,11.80
2018-06-25T04:16:37.830Z,13.80
2018-06-25T04:17:11.373Z,16.77
2018-06-25T04:17:44.955Z,13.83
2018-06-25T04:18:18.552Z,12.60
2018-06-25T04:18:58.091Z,11.90
2018-06-25T04:19:31.641Z,15.05
2018-06-25T04:20:05.608Z,12.37
2018-06-25T04:20:39.266Z,14.55
2018-06-25T04:21:12.848Z,13.53
2018-06-25T04:21:47.160Z,13.05
2018-06-25T04:22:20.712Z,12.95
2018-06-25T04:22:54.226Z,12.55
2018-06-25T04:23:27.903Z,13.30
2018-06-25T04:24:02.259Z,10.75
2018-06-25T04:24:35.860Z,12.98
2018-06-25T04:25:10.051Z,12.50
2018-06-25T04:25:43.611Z,11.25
2018-06-25T04:26:17.748Z,9.25
2018-06-25T04:26:51.327Z,10.43
2018-06-25T04:27:24.873Z,11.15
2018-06-25T04:27:58.516Z,13.08
2018-06-25T04:28:33.312Z,8.85
2018-06-25T04:29:08.520Z,11.55
2018-06-25T04:29:42.241Z,14.83
2018-06-25T04:30:15.907Z,8.93
2018-06-25T04:30:49.568Z,10.25
2018-06-25T04:31:23.124Z,10.05
2018-06-25T04:31:56.644Z,12.82
2018-06-25T04:32:30.160Z,11.08
2018-06-25T04:33:03.778Z,9.90
2018-06-25T04:33:37.318Z,11.73
2018-06-25T04:34:10.867Z,11.20
2018-06-25T04:34:44.441Z,9.73
2018-06-25T04:35:18.131Z,8.40
2018-06-25T04:35:51.756Z,14.05
2018-06-25T04:36:25.831Z,10.03
2018-06-25T04:36:59.877Z,8.50
2018-06-25T04:37:34.938Z,9.25
2018-06-25T04:38:08.168Z,11.50
2018-06-25T04:38:41.740Z,11.78
2018-06-25T04:39:15.369Z,8.83
2018-06-25T04:39:49.607Z,10.68
2018-06-25T04:40:23.819Z,8.35
2018-06-25T04:40:57.420Z,10.70
2018-06-25T04:41:32.152Z,10.88
2018-06-25T04:42:06.145Z,10.68
2018-06-25T04:42:39.642Z,10.88
2018-06-25T04:43:13.202Z,10.40
2018-06-25T04:43:46.775Z,10.75
2018-06-25T04:44:20.377Z,11.63
2018-06-25T04:44:53.981Z,11.12
2018-06-25T04:45:27.603Z,11.78
2018-06-25T04:46:01.902Z,14.13
2018-06-25T04:46:35.536Z,14.03
2018-06-25T04:47:09.092Z,11.97
2018-06-25T04:47:43.296Z,12.33
2018-06-25T04:48:17.575Z,12.47
2018-06-25T04:48:51.208Z,11.85
2018-06-25T04:49:25.374Z,12.20
2018-06-25T04:49:58.946Z,11.22
2018-06-25T04:50:32.555Z,11.60
2018-06-25T04:51:06.808Z,11.60
2018-06-25T04:51:40.352Z,12.95
2018-06-25T04:52:13.585Z,12.63
2018-06-25T04:52:47.157Z,11.90
2018-06-25T04:53:20.691Z,11.95
2018-06-25T04:53:54.284Z,10.43
2018-06-25T04:54:28.032Z,8.98
2018-06-25T04:55:02.332Z,13.28
2018-06-25T04:55:35.963Z,12.65
2018-06-25T04:56:10.036Z,9.23
2018-06-25T04:56:43.632Z,11.12
2018-06-25T04:57:17.212Z,10.83
2018-06-25T04:57:51.425Z,11.63
2018-06-25T04:58:24.964Z,10.98
2018-06-25T04:58:58.605Z,10.30
2018-06-25T04:59:32.187Z,10.20
2018-06-25T05:00:06.070Z,10.28
2018-06-25T05:00:39.616Z,10.98
2018-06-25T05:01:13.281Z,8.97
2018-06-25T05:01:46.795Z,10.05
2018-06-25T05:02:20.355Z,9.68
2018-06-25T05:02:53.932Z,10.78
2018-06-25T05:03:27.979Z,12.40
2018-06-25T05:04:01.562Z,11.48
2018-06-25T05:04:35.819Z,13.55
2018-06-25T05:05:09.419Z,11.77
2018-06-25T05:05:43.724Z,12.10
2018-06-25T05:06:17.258Z,10.58
2018-06-25T05:06:50.853Z,10.05
2018-06-25T05:07:24.448Z,13.60
2018-06-25T05:07:58.031Z,12.13
2018-06-25T05:08:31.623Z,9.85
2018-06-25T05:09:08.355Z,10.55
2018-06-25T05:09:42.742Z,10.32
2018-06-25T05:10:16.275Z,11.55
2018-06-25T05:10:49.872Z,12.00
2018-06-25T05:11:23.820Z,9.48
2018-06-25T05:11:57.354Z,12.33
2018-06-25T05:12:31.723Z,12.58
2018-06-25T05:13:05.543Z,10.45
2018-06-25T05:13:39.126Z,13.78
2018-06-25T05:14:12.666Z,12.30
2018-06-25T05:14:45.864Z,12.70
2018-06-25T05:15:19.891Z,11.20
2018-06-25T05:15:53.432Z,11.53
2018-06-25T05:16:26.672Z,10.30
2018-06-25T05:17:00.895Z,11.88
2018-06-25T05:17:34.744Z,12.28
2018-06-25T05:18:08.304Z,13.53
2018-06-25T05:18:41.855Z,15.13
2018-06-25T05:19:15.750Z,12.33
2018-06-25T05:19:49.371Z,11.00
2018-06-25T05:20:22.971Z,10.95
2018-06-25T05:20:57.248Z,10.38
2018-06-25T05:21:30.895Z,12.90
2018-06-25T05:22:04.540Z,12.90
2018-06-25T05:22:38.196Z,12.53
2018-06-25T05:23:11.852Z,11.73
2018-06-25T05:23:45.459Z,14.58
2018-06-25T05:24:19.005Z,13.50
2018-06-25T05:24:52.627Z,16.40
2018-06-25T05:25:26.200Z,15.25
2018-06-25T05:25:59.811Z,14.73
2018-06-25T05:26:33.423Z,12.10
2018-06-25T05:27:07.023Z,14.73
2018-06-25T05:27:41.222Z,12.30
2018-06-25T05:28:15.535Z,12.53
2018-06-25T05:28:49.167Z,14.60
2018-06-25T05:29:23.451Z,19.27
2018-06-25T05:29:57.039Z,14.25
2018-06-25T05:30:30.589Z,14.55
2018-06-25T05:31:04.164Z,12.90
2018-06-25T05:31:37.750Z,14.93
2018-06-25T05:32:12.576Z,13.62
2018-06-25T05:32:46.170Z,14.35
2018-06-25T05:33:19.801Z,13.00
2018-06-25T05:33:53.388Z,11.63
2018-06-25T05:34:27.114Z,13.25
2018-06-25T05:35:00.638Z,13.40
2018-06-25T05:35:34.384Z,11.25
2018-06-25T05:36:07.984Z,14.87
2018-06-25T05:36:41.516Z,12.75
2018-06-25T05:37:15.096Z,13.58
2018-06-25T05:37:48.664Z,16.85
2018-06-25T05:38:22.336Z,15.53
2018-06-25T05:38:55.859Z,15.93
2018-06-25T05:39:29.087Z,12.82
2018-06-25T05:40:02.709Z,15.00
2018-06-25T05:40:36.352Z,18.55
2018-06-25T05:41:09.960Z,17.73
2018-06-25T05:41:43.646Z,17.90
2018-06-25T05:42:21.312Z,16.35
2018-06-25T05:42:54.920Z,14.60
2018-06-25T05:43:28.500Z,14.25
2018-06-25T05:44:03.436Z,15.85
2018-06-25T05:44:37.027Z,14.70
2018-06-25T05:45:10.653Z,14.13
2018-06-25T05:45:44.219Z,14.78
2018-06-25T05:46:17.843Z,14.05
2018-06-25T05:46:51.351Z,17.23
2018-06-25T05:47:25.548Z,13.98
2018-06-25T05:47:59.143Z,14.60
2018-06-25T05:48:32.745Z,15.13
2018-06-25T05:49:07.461Z,16.95
2018-06-25T05:49:41.987Z,18.15
2018-06-25T05:50:15.645Z,15.05
2018-06-25T05:50:49.400Z,15.63
2018-06-25T05:51:22.995Z,15.35
2018-06-25T05:51:56.565Z,14.75
2018-06-25T05:52:30.160Z,15.98
2018-06-25T05:53:04.127Z,14.63
2018-06-25T05:53:37.729Z,15.08
2018-06-25T05:54:12.104Z,15.60
2018-06-25T05:54:45.686Z,15.08
2018-06-25T05:55:20.207Z,14.90
2018-06-25T05:55:54.594Z,14.40
2018-06-25T05:56:28.184Z,13.15
2018-06-25T05:57:01.766Z,14.83
2018-06-25T05:57:35.588Z,16.25
2018-06-25T05:58:09.212Z,16.12
2018-06-25T05:58:42.787Z,12.60
2018-06-25T05:59:16.325Z,14.53
2018-06-25T05:59:49.904Z,13.20
2018-06-25T06:00:23.540Z,14.87
2018-06-25T06:00:57.104Z,16.07
2018-06-25T06:01:30.804Z,15.95
2018-06-25T06:02:04.382Z,12.03
2018-06-25T06:02:37.991Z,14.03
2018-06-25T06:03:11.651Z,15.63
2018-06-25T06:03:45.641Z,13.35
2018-06-25T06:04:19.151Z,13.50
2018-06-25T06:04:52.702Z,15.72
2018-06-25T06:05:26.358Z,15.50
2018-06-25T06:05:59.927Z,12.20
2018-06-25T06:06:33.517Z,12.30
2018-06-25T06:07:07.107Z,13.72
2018-06-25T06:07:40.707Z,13.55
2018-06-25T06:08:14.836Z,12.80
2018-06-25T06:08:48.427Z,14.50
2018-06-25T06:09:21.979Z,13.98
2018-06-25T06:09:55.654Z,14.93
2018-06-25T06:10:29.433Z,12.55
2018-06-25T06:11:03.000Z,13.40
2018-06-25T06:11:37.289Z,12.65
2018-06-25T06:12:10.853Z,15.35
2018-06-25T06:12:44.399Z,15.18
2018-06-25T06:13:17.896Z,14.87
2018-06-25T06:13:51.838Z,14.55
2018-06-25T06:14:26.040Z,16.77
2018-06-25T06:15:00.161Z,19.07
2018-06-25T06:15:35.380Z,17.20
2018-06-25T06:16:09.536Z,16.30
2018-06-25T06:16:43.614Z,15.32
2018-06-25T06:17:17.191Z,15.90
2018-06-25T06:17:50.801Z,28.55
2018-06-25T06:18:24.387Z,22.52
2018-06-25T06:18:57.945Z,21.50
2018-06-25T06:19:31.571Z,19.98
2018-06-25T06:20:05.575Z,22.85
2018-06-25T06:20:39.162Z,25.57
2018-06-25T06:21:13.004Z,21.62
2018-06-25T06:21:46.580Z,26.27
2018-06-25T06:22:20.166Z,19.15
2018-06-25T06:22:54.715Z,21.68
2018-06-25T06:23:28.987Z,21.97
2018-06-25T06:24:02.585Z,20.60
2018-06-25T06:24:36.736Z,19.62
2018-06-25T06:25:10.364Z,23.70
2018-06-25T06:25:44.488Z,17.40
2018-06-25T06:26:18.057Z,24.12
2018-06-25T06:26:51.643Z,14.85
2018-06-25T06:27:25.325Z,15.38
2018-06-25T06:27:58.935Z,20.88
2018-06-25T06:28:32.537Z,19.45
2018-06-25T06:29:06.132Z,19.15
2018-06-25T06:29:40.240Z,16.97
2018-06-25T06:30:14.571Z,16.80
2018-06-25T06:30:48.187Z,14.65
2018-06-25T06:31:21.862Z,17.37
2018-06-25T06:31:55.425Z,17.82
2018-06-25T06:32:29.360Z,17.40
2018-06-25T06:33:04.172Z,21.02
2018-06-25T06:33:37.781Z,20.55
2018-06-25T06:34:11.348Z,21.40
2018-06-25T06:34:45.686Z,22.20
2018-06-25T06:35:19.344Z,17.03
2018-06-25T06:35:52.915Z,21.70
2018-06-25T06:36:26.518Z,19.80
2018-06-25T06:37:00.858Z,17.95
2018-06-25T06:37:35.016Z,19.10
2018-06-25T06:38:08.597Z,21.12
2018-06-25T06:38:42.210Z,20.65
2018-06-25T06:39:16.562Z,20.88
2018-06-25T06:39:50.203Z,24.47
2018-06-25T06:40:23.796Z,24.32
2018-06-25T06:40:57.359Z,24.02
2018-06-25T06:41:31.708Z,24.18
2018-06-25T06:42:05.355Z,24.12
2018-06-25T06:42:38.949Z,22.50
2018-06-25T06:43:12.539Z,23.57
2018-06-25T06:43:46.079Z,23.50
2018-06-25T06:44:19.362Z,20.57
2018-06-25T06:44:52.950Z,24.10
2018-06-25T06:45:28.393Z,20.15
2018-06-25T06:46:01.626Z,26.45
2018-06-25T06:46:35.416Z,20.90
2018-06-25T06:47:09.026Z,24.47
2018-06-25T06:47:42.548Z,20.97
2018-06-25T06:48:16.252Z,24.47
2018-06-25T06:48:49.803Z,22.45
2018-06-25T06:49:26.918Z,21.68
2018-06-25T06:50:00.440Z,22.15
2018-06-25T06:50:34.111Z,27.17
2018-06-25T06:51:08.496Z,22.75
2018-06-25T06:51:42.024Z,23.32
2018-06-25T06:52:15.957Z,23.10
2018-06-25T06:52:50.181Z,21.33
2018-06-25T06:53:24.412Z,22.10
2018-06-25T06:53:57.976Z,21.48
2018-06-25T06:54:31.520Z,25.12
2018-06-25T06:55:05.136Z,21.07
2018-06-25T06:55:39.804Z,21.77
2018-06-25T06:56:13.490Z,21.42
2018-06-25T06:56:47.098Z,20.65
2018-06-25T06:57:20.621Z,20.77
2018-06-25T06:57:55.005Z,22.42
2018-06-25T06:58:28.689Z,21.10
2018-06-25T06:59:02.823Z,23.26
2018-06-25T06:59:36.344Z,21.62
2018-06-25T07:00:09.935Z,18.30
2018-06-25T07:00:43.492Z,22.45
2018-06-25T07:01:17.271Z,20.57
2018-06-25T07:01:51.472Z,19.57
2018-06-25T07:02:25.110Z,20.35
2018-06-25T07:02:58.741Z,21.97
2018-06-25T07:03:32.349Z,21.75
2018-06-25T07:04:05.879Z,20.40
2018-06-25T07:04:39.426Z,21.10
2018-06-25T07:05:13.031Z,19.70
2018-06-25T07:05:46.600Z,19.35
2018-06-25T07:06:20.522Z,20.08
2018-06-25T07:06:54.505Z,23.52
2018-06-25T07:07:28.146Z,19.80
2018-06-25T07:08:01.675Z,22.60
2018-06-25T07:08:35.859Z,22.85
2018-06-25T07:09:11.518Z,20.87
2018-06-25T07:09:45.176Z,23.35
2018-06-25T07:10:18.784Z,21.48
2018-06-25T07:10:52.948Z,22.77
2018-06-25T07:11:26.560Z,21.73
2018-06-25T07:12:01.357Z,26.30
2018-06-25T07:12:34.911Z,23.57
2018-06-25T07:13:08.431Z,21.73
2018-06-25T07:13:42.378Z,23.98
2018-06-25T07:14:15.990Z,23.18
2018-06-25T07:14:49.566Z,22.37
2018-06-25T07:15:23.191Z,25.30
2018-06-25T07:15:56.736Z,24.30
2018-06-25T07:16:30.320Z,22.98
2018-06-25T07:17:03.904Z,24.37
2018-06-25T07:17:37.572Z,27.15
2018-06-25T07:18:11.195Z,25.50
2018-06-25T07:18:44.768Z,23.85
2018-06-25T07:19:18.293Z,26.37
2018-06-25T07:19:51.864Z,28.12
2018-06-25T07:20:25.537Z,26.95